^^
Grace C. Lehan Memorial Weather Station Historical Data
Daily Summary for January 11, 2022 Units:  Both    English   Metric
Daily Weekly Monthly Yearly
  High: Low: Average:
Temperature: 21 °F /  -6.1 °C 18.5 °F /  -7.5 °C 19.9 °F /  -6.7 °C
Dew Point: 13.3 °F /  -10.4 °C 6.4 °F /  -14.2 °C 10.3 °F /  -12.1 °C
Humidity: 73.5% 57% 66%
Wind Speed: 9.8mph /  15.8km/h - 4.6mph /  7.4km/h
Wind Gust: 21mph /  33.8km/h - -
Wind- - WNW
Pressure: 30.23 in /  1023.6 hPa 30.10 in /  1019.2 hPa -
Precipitation: 0.00 in /  0 mm    
 
 
Tabular Data for January 11, 2022
Time Temperature Dew Point Pressure Wind Wind Speed Wind Gust Humidity Rainfall Rate (Hourly) solar
00:04 18.5 °F /  -7.5 °C 11.5 °F /  -11.4 °C 30.10in /  1019.2hPa Calm   5mph /  8km/h 73.5% 0.00in /  0mm 0 W/m2
00:09 18.6 °F /  -7.4 °C 11.4 °F /  -11.4 °C 30.10in /  1019.2hPa Calm   2mph /  3.2km/h 73% 0.00in /  0mm 0 W/m2
00:14 18.6 °F /  -7.4 °C 11.4 °F /  -11.4 °C 30.10in /  1019.2hPa Calm   2mph /  3.2km/h 73% 0.00in /  0mm 0 W/m2
00:19 18.7 °F /  -7.4 °C 11.5 °F /  -11.4 °C 30.10in /  1019.2hPa West 0.1mph /  0.2km/h 2mph /  3.2km/h 73% 0.00in /  0mm 0 W/m2
00:24 18.7 °F /  -7.4 °C 11.5 °F /  -11.4 °C 30.10in /  1019.2hPa West 0.3mph /  0.5km/h 3mph /  4.8km/h 73% 0.00in /  0mm 0 W/m2
00:29 18.8 °F /  -7.3 °C 11.6 °F /  -11.3 °C 30.10in /  1019.2hPa West 0.4mph /  0.6km/h 3mph /  4.8km/h 73% 0.00in /  0mm 0 W/m2
00:34 19.1 °F /  -7.2 °C 11.7 °F /  -11.3 °C 30.11in /  1019.5hPa West 0.2mph /  0.3km/h 3mph /  4.8km/h 72.6% 0.00in /  0mm 0 W/m2
00:39 19.4 °F /  -7 °C 11.8 °F /  -11.2 °C 30.11in /  1019.5hPa West 0.4mph /  0.6km/h 5mph /  8km/h 72% 0.00in /  0mm 0 W/m2
00:44 19.6 °F /  -6.9 °C 12.1 °F /  -11.1 °C 30.12in /  1019.9hPa West 0.5mph /  0.8km/h 5mph /  8km/h 72% 0.00in /  0mm 0 W/m2
00:49 19.9 °F /  -6.7 °C 12.2 °F /  -11 °C 30.13in /  1020.2hPa WNW 3mph /  4.8km/h 10mph /  16.1km/h 71.7% 0.00in /  0mm 0 W/m2
00:54 20.3 °F /  -6.5 °C 12.7 °F /  -10.7 °C 30.13in /  1020.2hPa WNW 5.8mph /  9.3km/h 17mph /  27.4km/h 72% 0.00in /  0mm 0 W/m2
00:59 20.6 °F /  -6.3 °C 13 °F /  -10.6 °C 30.13in /  1020.2hPa WNW 4.2mph /  6.8km/h 20mph /  32.2km/h 72% 0.00in /  0mm 0 W/m2
01:04 20.9 °F /  -6.2 °C 13.3 °F /  -10.4 °C 30.13in /  1020.2hPa NW 4.3mph /  6.9km/h 20mph /  32.2km/h 72% 0.00in /  0mm 0 W/m2
01:09 21 °F /  -6.1 °C 13 °F /  -10.6 °C 30.14in /  1020.5hPa WNW 4.4mph /  7.1km/h 14mph /  22.5km/h 70.7% 0.00in /  0mm 0 W/m2
01:14 21 °F /  -6.1 °C 12.8 °F /  -10.7 °C 30.14in /  1020.5hPa WNW 4.3mph /  6.9km/h 14mph /  22.5km/h 70% 0.00in /  0mm 0 W/m2
01:19 20.9 °F /  -6.2 °C 12.6 °F /  -10.8 °C 30.14in /  1020.5hPa WNW 1.9mph /  3.1km/h 14mph /  22.5km/h 69.9% 0.00in /  0mm 0 W/m2
01:24 20.7 °F /  -6.3 °C 12.4 °F /  -10.9 °C 30.15in /  1020.9hPa WNW 2.2mph /  3.5km/h 14mph /  22.5km/h 69.6% 0.00in /  0mm 0 W/m2
01:29 20.6 °F /  -6.3 °C 12.1 °F /  -11.1 °C 30.16in /  1021.2hPa NW 1.4mph /  2.3km/h 14mph /  22.5km/h 69.3% 0.00in /  0mm 0 W/m2
01:34 20.4 °F /  -6.4 °C 11.8 °F /  -11.2 °C 30.16in /  1021.2hPa NW 3.6mph /  5.8km/h 14mph /  22.5km/h 68.9% 0.00in /  0mm 0 W/m2
01:39 20.2 °F /  -6.6 °C 11.3 °F /  -11.5 °C 30.16in /  1021.2hPa NW 3.8mph /  6.1km/h 11mph /  17.7km/h 67.8% 0.00in /  0mm 0 W/m2
01:44 20.1 °F /  -6.6 °C 10.9 °F /  -11.7 °C 30.16in /  1021.2hPa NW 5.1mph /  8.2km/h 12mph /  19.3km/h 66.7% 0.00in /  0mm 0 W/m2
01:49 20.1 °F /  -6.6 °C 10.2 °F /  -12.1 °C 30.17in /  1021.6hPa NW 8mph /  12.9km/h 15mph /  24.1km/h 64.9% 0.00in /  0mm 0 W/m2
01:54 20.2 °F /  -6.6 °C 9.8 °F /  -12.3 °C 30.17in /  1021.6hPa NW 6.5mph /  10.5km/h 16mph /  25.7km/h 63.5% 0.00in /  0mm 0 W/m2
01:59 20.3 °F /  -6.5 °C 9.7 °F /  -12.4 °C 30.18in /  1021.9hPa NW 5.5mph /  8.9km/h 16mph /  25.7km/h 63% 0.00in /  0mm 0 W/m2
02:04 20.4 °F /  -6.4 °C 9.8 °F /  -12.3 °C 30.18in /  1021.9hPa NW 7.5mph /  12.1km/h 16mph /  25.7km/h 63% 0.00in /  0mm 0 W/m2
02:09 20.5 °F /  -6.4 °C 10.2 °F /  -12.1 °C 30.19in /  1022.2hPa WNW 9.8mph /  15.8km/h 16mph /  25.7km/h 63.8% 0.00in /  0mm 0 W/m2
02:14 20.5 °F /  -6.4 °C 10.6 °F /  -11.9 °C 30.19in /  1022.2hPa WNW 6.9mph /  11.1km/h 16mph /  25.7km/h 65% 0.00in /  0mm 0 W/m2
02:19 20.4 °F /  -6.4 °C 9.9 °F /  -12.3 °C 30.19in /  1022.2hPa NW 6.4mph /  10.3km/h 21mph /  33.8km/h 63.3% 0.00in /  0mm 0 W/m2
02:24 20.3 °F /  -6.5 °C 9.6 °F /  -12.4 °C 30.19in /  1022.2hPa WNW 7.4mph /  11.9km/h 21mph /  33.8km/h 62.7% 0.00in /  0mm 0 W/m2
02:29 20.1 °F /  -6.6 °C 8.9 °F /  -12.8 °C 30.19in /  1022.2hPa NW 9.4mph /  15.1km/h 21mph /  33.8km/h 61.2% 0.00in /  0mm 0 W/m2
02:34 20 °F /  -6.7 °C 8.4 °F /  -13.1 °C 30.20in /  1022.6hPa NW 7mph /  11.3km/h 21mph /  33.8km/h 60.1% 0.00in /  0mm 0 W/m2
02:39 19.9 °F /  -6.7 °C 8.1 °F /  -13.3 °C 30.20in /  1022.6hPa WNW 7.6mph /  12.2km/h 16mph /  25.7km/h 59.4% 0.00in /  0mm 0 W/m2
02:44 19.8 °F /  -6.8 °C 7.8 °F /  -13.4 °C 30.21in /  1022.9hPa NW 8.3mph /  13.4km/h 19mph /  30.6km/h 59% 0.00in /  0mm 0 W/m2
02:49 19.8 °F /  -6.8 °C 7.2 °F /  -13.8 °C 30.21in /  1022.9hPa NW 9mph /  14.5km/h 19mph /  30.6km/h 57.4% 0.00in /  0mm 0 W/m2
02:54 19.7 °F /  -6.8 °C 7.2 °F /  -13.8 °C 30.21in /  1022.9hPa NW 5.1mph /  8.2km/h 19mph /  30.6km/h 57.7% 0.00in /  0mm 0 W/m2
02:59 19.6 °F /  -6.9 °C 7.2 °F /  -13.8 °C 30.21in /  1022.9hPa WNW 6.3mph /  10.1km/h 19mph /  30.6km/h 58% 0.00in /  0mm 0 W/m2
03:04 19.5 °F /  -6.9 °C 7.1 °F /  -13.8 °C 30.21in /  1022.9hPa WNW 6.3mph /  10.1km/h 19mph /  30.6km/h 57.9% 0.00in /  0mm 0 W/m2
03:09 19.4 °F /  -7 °C 6.9 °F /  -13.9 °C 30.22in /  1023.2hPa NW 6.7mph /  10.8km/h 14mph /  22.5km/h 57.6% 0.00in /  0mm 0 W/m2
03:14 19.2 °F /  -7.1 °C 6.8 °F /  -14 °C 30.22in /  1023.2hPa WNW 6.5mph /  10.5km/h 15mph /  24.1km/h 57.6% 0.00in /  0mm 0 W/m2
03:19 19.1 °F /  -7.2 °C 6.4 °F /  -14.2 °C 30.22in /  1023.2hPa WNW 7.8mph /  12.6km/h 17mph /  27.4km/h 57% 0.00in /  0mm 0 W/m2
03:23 19.1 °F /  -7.2 °C 6.4 °F /  -14.2 °C 30.23in /  1023.6hPa WNW 3.4mph /  5.5km/h 17mph /  27.4km/h 57% 0.00in /  0mm 0 W/m2
Hartford County Weather
Compliments of Weather Underground - 2 mb